Time;durP1;ratioP1;P1;durP2;ratioP2;P2;SDS_P1;SDS_P2;PMS_P1;PMS_P2;Temp;Humidity;BMP_temperature;BMP_pressure;BME280_temperature;BME280_humidity;BME280_pressure;Samples;Min_cycle;Max_cycle;Signal;HPM_P1;HPM_P2
2023/01/11 00:00:46;;;;;;;59.30;44.20;;;;;;;3.99;100.00;99353.04;109116;1256;57447;-72
2023/01/11 00:03:17;;;;;;;58.90;44.10;;;;;;;3.97;100.00;99351.70;109110;1259;65348;-72
2023/01/11 00:05:44;;;;;;;59.70;44.50;;;;;;;3.96;100.00;99351.91;109148;1256;60096;-72
2023/01/11 00:08:11;;;;;;;57.50;43.10;;;;;;;3.95;100.00;99350.52;109116;1256;65103;-72
2023/01/11 00:10:38;;;;;;;61.80;44.50;;;;;;;3.94;100.00;99346.85;109115;1256;57470;-72
2023/01/11 00:13:05;;;;;;;69.10;46.60;;;;;;;3.93;100.00;99353.58;109109;1256;57458;-72
2023/01/11 00:15:35;;;;;;;63.30;47.50;;;;;;;3.92;100.00;99357.65;109143;1256;65256;-72
2023/01/11 00:18:01;;;;;;;68.40;47.30;;;;;;;3.92;100.00;99358.02;109133;1256;60831;-72
2023/01/11 00:20:28;;;;;;;65.90;45.80;;;;;;;3.92;100.00;99352.20;109113;1256;63974;-72
2023/01/11 00:22:55;;;;;;;62.60;46.30;;;;;;;3.92;100.00;99352.56;109112;1256;58294;-72
2023/01/11 00:25:21;;;;;;;70.90;46.90;;;;;;;3.92;100.00;99352.92;109138;1255;58152;-72
2023/01/11 00:27:48;;;;;;;65.40;44.30;;;;;;;3.92;100.00;99357.14;108908;1256;65960;-72
2023/01/11 00:30:16;;;;;;;63.60;46.40;;;;;;;3.91;100.00;99357.70;109127;1256;61154;-72
2023/01/11 00:32:43;;;;;;;62.30;45.20;;;;;;;3.91;100.00;99359.98;109124;1256;65200;-72
2023/01/11 00:35:10;;;;;;;61.70;42.80;;;;;;;3.91;100.00;99359.45;109125;1256;58225;-72
2023/01/11 00:37:37;;;;;;;60.50;44.60;;;;;;;3.90;100.00;99361.23;109136;1256;58137;-71
2023/01/11 00:40:04;;;;;;;58.40;42.10;;;;;;;3.90;100.00;99362.13;109138;1255;64994;-71
2023/01/11 00:48:04;;;;;;;59.40;43.40;;;;;;;3.89;100.00;99354.07;109109;1256;58680;-72
2023/01/11 00:50:34;;;;;;;62.40;45.00;;;;;;;3.89;100.00;99355.48;109128;1256;58185;-72
2023/01/11 00:53:02;;;;;;;62.20;44.30;;;;;;;3.90;100.00;99358.46;109127;1256;65994;-72
2023/01/11 00:55:30;;;;;;;62.30;44.40;;;;;;;3.90;100.00;99360.18;109145;1255;59920;-72
2023/01/11 00:57:57;;;;;;;56.50;42.20;;;;;;;3.89;100.00;99364.96;109113;1256;64758;-71
2023/01/11 01:00:25;;;;;;;63.60;43.90;;;;;;;3.88;100.00;99367.11;109097;1256;58248;-72
2023/01/11 01:02:52;;;;;;;60.00;45.30;;;;;;;3.88;100.00;99370.27;109152;1255;58308;-72
2023/01/11 01:05:18;;;;;;;59.60;44.00;;;;;;;3.87;100.00;99373.30;108938;1255;64034;-72
2023/01/11 01:07:45;;;;;;;59.40;43.60;;;;;;;3.86;100.00;99377.38;109151;1255;59740;-72
2023/01/11 01:10:14;;;;;;;61.50;42.30;;;;;;;3.84;100.00;99377.61;109111;1256;64794;-72
2023/01/11 01:15:26;;;;;;;60.10;41.60;;;;;;;3.80;100.00;99377.73;109132;1255;58268;-71
2023/01/11 01:17:54;;;;;;;59.00;41.20;;;;;;;3.79;100.00;99376.20;109142;1256;66212;-71
2023/01/11 01:20:23;;;;;;;61.60;43.60;;;;;;;3.79;100.00;99376.73;109162;1256;61202;-71
2023/01/11 01:22:49;;;;;;;61.10;45.20;;;;;;;3.78;100.00;99372.52;109140;1256;64826;-70
2023/01/11 01:25:16;;;;;;;56.60;43.00;;;;;;;3.78;100.00;99370.79;109107;1255;58343;-71
2023/01/11 01:27:43;;;;;;;61.40;41.60;;;;;;;3.77;100.00;99371.88;109101;1256;58280;-71
2023/01/11 01:30:10;;;;;;;58.60;41.60;;;;;;;3.76;100.00;99373.33;109167;1256;65916;-71
2023/01/11 01:32:37;;;;;;;56.90;41.20;;;;;;;3.74;100.00;99371.08;109124;1255;60389;-71
2023/01/11 01:35:04;;;;;;;57.20;42.10;;;;;;;3.75;100.00;99372.30;108953;1256;65141;-71
2023/01/11 01:37:36;;;;;;;64.20;43.40;;;;;;;3.74;100.00;99371.43;109100;1255;59012;-70
2023/01/11 01:40:04;;;;;;;58.30;43.70;;;;;;;3.73;100.00;99373.42;108932;1256;58291;-71
2023/01/11 01:42:31;;;;;;;58.70;39.90;;;;;;;3.72;100.00;99367.48;109120;1256;64823;-71
2023/01/11 01:45:07;;;;;;;61.40;41.60;;;;;;;3.70;100.00;99366.31;108956;1255;60724;-71
2023/01/11 01:47:52;;;;;;;60.10;42.40;;;;;;;3.68;100.00;99366.02;109165;1255;64997;-71
2023/01/11 01:50:24;;;;;;;59.30;42.40;;;;;;;3.67;100.00;99364.80;109135;1256;58509;-71
2023/01/11 01:52:55;;;;;;;60.90;42.50;;;;;;;3.67;100.00;99361.15;109149;1256;58533;-72
2023/01/11 01:55:27;;;;;;;63.40;43.70;;;;;;;3.66;100.00;99361.16;109132;1256;66304;-71
2023/01/11 01:57:56;;;;;;;60.20;42.90;;;;;;;3.66;100.00;99361.52;109149;1255;60144;-72
2023/01/11 02:00:23;;;;;;;65.10;43.90;;;;;;;3.66;100.00;99361.88;109125;1256;62806;-71
2023/01/11 02:02:51;;;;;;;56.40;40.60;;;;;;;3.66;100.00;99365.92;109133;1256;58155;-71
2023/01/11 02:05:18;;;;;;;62.00;42.90;;;;;;;3.65;100.00;99363.66;109114;1256;58154;-71
2023/01/11 02:07:45;;;;;;;65.30;43.70;;;;;;;3.64;100.00;99361.77;109152;1256;65934;-72
2023/01/11 02:10:20;;;;;;;64.60;46.10;;;;;;;3.63;100.00;99359.16;109134;1256;59802;-71
2023/01/11 02:13:04;;;;;;;61.80;46.40;;;;;;;3.63;100.00;99358.64;109119;1256;65234;-72
2023/01/11 02:15:31;;;;;;;63.80;45.30;;;;;;;3.62;100.00;99357.09;109124;1256;58218;-72
2023/01/11 02:17:58;;;;;;;61.00;46.10;;;;;;;3.60;100.00;99355.40;109111;1256;58574;-72
2023/01/11 02:20:50;;;;;;;60.20;44.10;;;;;;;3.57;100.00;99357.77;109121;1256;65904;-71
2023/01/11 02:23:57;;;;;;;60.80;45.00;;;;;;;3.57;100.00;99356.91;109153;1255;60462;-71
2023/01/11 02:26:32;;;;;;;66.10;43.00;;;;;;;3.54;100.00;99348.40;109144;1256;65212;-71
2023/01/11 02:29:35;;;;;;;62.90;44.50;;;;;;;3.52;100.00;99347.19;109108;1257;58783;-71
2023/01/11 02:32:19;;;;;;;62.90;45.00;;;;;;;3.51;100.00;99341.96;108592;1264;58603;-71
2023/01/11 02:35:04;;;;;;;68.00;47.20;;;;;;;3.50;100.00;99342.55;108378;1264;65242;-72
2023/01/11 02:37:49;;;;;;;72.90;49.40;;;;;;;3.47;100.00;99349.45;108529;1265;59025;-71
2023/01/11 02:40:24;;;;;;;73.40;51.70;;;;;;;3.47;100.00;99350.34;108560;1265;64828;-72
2023/01/11 02:46:31;;;;;;;70.40;48.80;;;;;;;3.45;100.00;99352.52;108579;1264;58327;-71
2023/01/11 02:48:58;;;;;;;72.60;50.40;;;;;;;3.43;100.00;99356.83;108033;1272;66299;-71
2023/01/11 02:51:48;;;;;;;69.50;49.40;;;;;;;3.42;100.00;99359.83;108011;1270;60868;-72
2023/01/11 02:54:18;;;;;;;67.50;47.30;;;;;;;3.42;100.00;99358.80;108015;1270;64786;-72
2023/01/11 02:56:48;;;;;;;68.50;48.50;;;;;;;3.41;100.00;99351.44;108020;1270;58320;-71
2023/01/11 02:59:20;;;;;;;75.40;52.50;;;;;;;3.41;100.00;99351.43;108031;1270;58681;-72
2023/01/11 03:01:52;;;;;;;72.40;50.20;;;;;;;3.43;100.00;99355.22;107949;1270;66425;-72
2023/01/11 03:04:34;;;;;;;72.10;50.10;;;;;;;3.46;100.00;99356.02;108054;1270;61173;-73
2023/01/11 03:07:12;;;;;;;73.30;51.50;;;;;;;3.46;100.00;99352.30;108007;1271;64076;-72
2023/01/11 03:10:20;;;;;;;72.50;49.80;;;;;;;3.46;100.00;99351.30;108299;1264;58576;-72
2023/01/11 03:12:58;;;;;;;75.70;51.50;;;;;;;3.44;100.00;99351.50;108186;1270;58556;-72
2023/01/11 03:15:43;;;;;;;73.40;51.20;;;;;;;3.45;100.00;99353.23;108202;1269;65062;-72
2023/01/11 03:18:43;;;;;;;75.80;52.90;;;;;;;3.45;100.00;99353.23;107957;1270;58682;-72
2023/01/11 03:21:15;;;;;;;;;;;;;;;3.44;100.00;99349.76;108209;1270;63731;-72
2023/01/11 03:23:51;;;;;;;73.90;50.20;;;;;;;3.43;100.00;99349.63;108192;1270;58485;-71
2023/01/11 03:26:26;;;;;;;74.10;50.00;;;;;;;3.42;100.00;99354.91;108396;1264;58640;-72
2023/01/11 03:29:09;;;;;;;73.80;50.00;;;;;;;3.41;100.00;99353.73;108549;1265;65187;-72
2023/01/11 03:31:37;;;;;;;69.70;49.90;;;;;;;3.38;100.00;99355.73;108514;1264;61295;-72
2023/01/11 03:34:18;;;;;;;71.50;50.80;;;;;;;3.37;100.00;99354.21;108522;1265;64775;-72
2023/01/11 03:36:49;;;;;;;74.20;51.00;;;;;;;3.34;100.00;99357.11;108514;1265;58288;-72
2023/01/11 03:39:20;;;;;;;82.10;53.70;;;;;;;3.32;100.00;99359.10;108552;1265;58284;-72
2023/01/11 03:41:51;;;;;;;78.40;54.50;;;;;;;3.31;100.00;99357.19;108540;1267;65030;-72
2023/01/11 03:44:19;;;;;;;72.20;51.10;;;;;;;3.30;100.00;99352.31;108931;1258;60941;-71
2023/01/11 03:46:51;;;;;;;77.80;52.70;;;;;;;3.30;100.00;99354.25;109117;1257;64861;-72
2023/01/11 03:49:46;;;;;;;77.30;52.90;;;;;;;3.30;100.00;99352.11;109097;1257;58310;-71
2023/01/11 03:52:15;;;;;;;80.50;52.90;;;;;;;3.31;100.00;99353.49;108849;1260;58212;-71
2023/01/11 03:54:43;;;;;;;75.70;53.30;;;;;;;3.33;100.00;99356.77;108717;1260;66007;-71
2023/01/11 03:57:17;;;;;;;87.50;59.50;;;;;;;3.34;100.00;99352.90;108847;1260;60947;-72
2023/01/11 03:59:44;;;;;;;82.60;59.00;;;;;;;3.34;100.00;99353.23;108813;1260;64070;-72
2023/01/11 04:02:20;;;;;;;89.30;57.70;;;;;;;3.35;100.00;99350.23;108641;1260;58242;-72
2023/01/11 04:04:47;;;;;;;76.90;54.30;;;;;;;3.34;100.00;99346.23;108685;1260;58356;-71
2023/01/11 04:07:14;;;;;;;80.20;56.50;;;;;;;3.32;100.00;99341.54;108816;1260;66006;-72
2023/01/11 04:09:41;;;;;;;78.00;57.10;;;;;;;3.33;100.00;99339.42;108859;1260;60802;-71
2023/01/11 04:12:08;;;;;;;86.30;57.00;;;;;;;3.32;100.00;99341.55;108812;1260;64749;-72
2023/01/11 04:14:35;;;;;;;86.00;58.70;;;;;;;3.30;100.00;99338.42;108659;1264;58292;-72
2023/01/11 04:17:02;;;;;;;81.30;54.10;;;;;;;3.29;100.00;99336.19;108833;1261;58262;-72
2023/01/11 04:19:28;;;;;;;79.20;55.70;;;;;;;3.27;100.00;99341.33;108828;1260;65279;-71
2023/01/11 04:21:55;;;;;;;79.60;55.10;;;;;;;3.26;100.00;99342.41;108795;1260;60798;-71
2023/01/11 04:24:22;;;;;;;85.40;58.40;;;;;;;3.26;100.00;99340.83;108832;1260;64672;-71
2023/01/11 04:26:48;;;;;;;88.00;57.90;;;;;;;3.26;100.00;99341.73;108800;1261;58459;-71
2023/01/11 04:29:15;;;;;;;94.00;61.10;;;;;;;3.25;100.00;99337.90;108955;1257;58529;-72
2023/01/11 04:31:41;;;;;;;87.90;59.40;;;;;;;3.24;100.00;99338.82;109031;1256;67194;-72
2023/01/11 04:34:11;;;;;;;87.40;54.90;;;;;;;3.23;100.00;99337.10;109055;1256;60200;-72
2023/01/11 04:36:37;;;;;;;87.90;56.40;;;;;;;3.20;100.00;99334.53;109062;1260;64752;-72
2023/01/11 04:39:05;;;;;;;79.60;57.00;;;;;;;3.20;100.00;99327.35;109036;1256;58202;-71
2023/01/11 04:44:17;;;;;;;88.40;60.80;;;;;;;3.21;100.00;99326.61;109064;1256;66249;-71
2023/01/11 04:46:43;;;;;;;88.80;61.50;;;;;;;3.22;100.00;99327.81;109029;1256;60782;-71
2023/01/11 04:49:10;;;;;;;88.90;64.30;;;;;;;3.22;100.00;99334.13;109023;1256;65429;-71
2023/01/11 04:51:37;;;;;;;85.30;64.60;;;;;;;3.21;100.00;99330.47;109031;1257;58145;-71
2023/01/11 04:54:04;;;;;;;91.60;64.80;;;;;;;3.21;100.00;99330.12;109025;1257;58261;-71
2023/01/11 04:56:31;;;;;;;101.70;68.40;;;;;;;3.21;100.00;99324.33;109029;1257;65935;-71
2023/01/11 04:58:57;;;;;;;95.30;67.00;;;;;;;3.22;100.00;99319.37;109064;1256;58731;-71
2023/01/11 05:01:24;;;;;;;101.90;73.00;;;;;;;3.23;100.00;99316.38;108969;1256;64726;-71
2023/01/11 05:03:50;;;;;;;101.70;70.20;;;;;;;3.24;100.00;99318.09;109039;1257;58143;-72
2023/01/11 05:06:24;;;;;;;100.10;70.20;;;;;;;3.25;100.00;99320.16;109043;1257;58541;-72
2023/01/11 05:08:51;;;;;;;100.30;69.00;;;;;;;3.23;100.00;99321.09;109070;1256;66104;-72
2023/01/11 05:11:17;;;;;;;101.40;70.40;;;;;;;3.24;100.00;99317.58;109010;1258;60814;-72
2023/01/11 05:13:44;;;;;;;101.90;72.00;;;;;;;3.25;100.00;99314.71;108908;1257;65029;-72
2023/01/11 05:16:12;;;;;;;102.10;72.40;;;;;;;3.25;100.00;99308.05;108903;1257;58323;-73
2023/01/11 05:18:46;;;;;;;102.70;71.80;;;;;;;3.25;100.00;99303.30;109035;1256;58320;-72
2023/01/11 05:21:14;;;;;;;102.70;72.20;;;;;;;3.25;100.00;99305.42;109035;1257;64981;-72
2023/01/11 05:23:41;;;;;;;93.30;68.80;;;;;;;3.23;100.00;99307.08;108983;1257;60722;-72
2023/01/11 05:26:12;;;;;;;104.50;70.60;;;;;;;3.20;100.00;99307.51;109030;1256;64781;-72
2023/01/11 05:28:39;;;;;;;90.10;65.40;;;;;;;3.17;100.00;99306.55;109063;1256;58209;-71
2023/01/11 05:31:05;;;;;;;94.10;68.50;;;;;;;3.14;100.00;99307.34;109081;1256;58313;-72
2023/01/11 05:33:32;;;;;;;95.70;65.90;;;;;;;3.14;100.00;99309.79;109050;1256;64881;-70
2023/01/11 05:36:01;;;;;;;86.60;63.20;;;;;;;3.17;100.00;99312.70;109009;1257;59765;-71
2023/01/11 05:38:28;;;;;;;88.60;64.90;;;;;;;3.15;100.00;99304.15;109055;1256;63813;-71
2023/01/11 05:41:00;;;;;;;96.80;64.50;;;;;;;3.12;100.00;99298.98;109040;1256;58266;-72
2023/01/11 05:43:28;;;;;;;95.60;66.00;;;;;;;3.08;100.00;99295.94;109004;1257;58251;-72
2023/01/11 05:45:57;;;;;;;88.50;64.60;;;;;;;3.05;100.00;99292.70;109068;1257;66168;-72
2023/01/11 05:48:24;;;;;;;85.70;64.20;;;;;;;3.02;100.00;99286.83;109087;1256;66792;-73
2023/01/11 05:50:52;;;;;;;92.50;62.70;;;;;;;2.96;100.00;99283.67;109046;1256;64003;-72
2023/01/11 05:53:21;;;;;;;85.70;60.00;;;;;;;2.90;100.00;99288.98;109034;1258;58146;-71
2023/01/11 05:55:55;;;;;;;82.70;60.20;;;;;;;2.83;100.00;99291.45;109076;1256;58158;-72
2023/01/11 05:58:24;;;;;;;84.40;61.20;;;;;;;2.75;100.00;99290.82;109039;1256;64913;-71
2023/01/11 06:00:53;;;;;;;80.50;58.50;;;;;;;2.67;100.00;99290.20;108967;1257;59936;-72
2023/01/11 06:03:22;;;;;;;85.20;60.30;;;;;;;2.61;100.00;99291.77;109020;1256;64367;-71
2023/01/11 06:05:49;;;;;;;101.30;71.20;;;;;;;2.55;100.00;99291.77;109046;1256;58241;-72
2023/01/11 06:08:16;;;;;;;85.70;61.00;;;;;;;2.52;100.00;99293.79;109022;1256;58339;-71
2023/01/11 06:10:50;;;;;;;75.70;55.50;;;;;;;2.49;100.00;99292.13;109021;1256;64844;-71
2023/01/11 06:13:25;;;;;;;100.00;69.20;;;;;;;2.42;100.00;99292.16;109114;1254;59818;-72
2023/01/11 06:16:13;;;;;;;91.40;64.40;;;;;;;2.38;100.00;99292.09;108971;1254;65274;-71
2023/01/11 06:18:44;;;;;;;104.80;74.00;;;;;;;2.35;100.00;99292.19;109200;1254;58176;-72
2023/01/11 06:21:11;;;;;;;100.90;72.80;;;;;;;2.31;100.00;99287.39;109210;1254;58194;-72
2023/01/11 06:23:41;;;;;;;102.00;75.00;;;;;;;2.25;100.00;99287.22;109268;1254;64987;-72
2023/01/11 06:26:12;;;;;;;109.10;76.50;;;;;;;2.20;100.00;99291.55;109249;1254;60782;-72
2023/01/11 06:28:39;;;;;;;108.90;77.50;;;;;;;2.15;100.00;99289.59;109245;1254;64749;-72
2023/01/11 06:31:06;;;;;;;109.00;79.60;;;;;;;2.10;100.00;99281.51;109209;1254;58649;-72
2023/01/11 06:33:34;;;;;;;105.90;78.40;;;;;;;2.05;100.00;99281.81;109263;1254;58131;-71
2023/01/11 06:36:05;;;;;;;110.20;78.20;;;;;;;1.99;100.00;99285.31;109066;1254;64854;-71
2023/01/11 06:38:33;;;;;;;120.20;70.70;;;;;;;1.93;100.00;99281.09;108467;1254;1003073;-71
2023/01/11 06:41:02;;;;;;;104.50;73.90;;;;;;;1.86;100.00;99280.58;109217;1254;64795;-71
2023/01/11 06:43:29;;;;;;;105.10;75.40;;;;;;;1.82;100.00;99280.35;109271;1254;58337;-71
2023/01/11 06:45:57;;;;;;;101.60;75.80;;;;;;;1.78;100.00;99282.55;109244;1254;58137;-71
2023/01/11 06:48:25;;;;;;;99.70;72.60;;;;;;;1.75;100.00;99280.89;109247;1254;66504;-71
2023/01/11 06:50:54;;;;;;;105.00;73.60;;;;;;;1.73;100.00;99280.22;109213;1254;60772;-71
2023/01/11 06:53:22;;;;;;;105.50;74.70;;;;;;;1.72;100.00;99285.51;109243;1254;65044;-72
2023/01/11 06:55:53;;;;;;;104.00;72.40;;;;;;;1.70;100.00;99283.98;108946;1254;58241;-72
2023/01/11 06:58:22;;;;;;;90.80;65.30;;;;;;;1.67;100.00;99282.47;109229;1254;58210;-71
2023/01/11 07:00:50;;;;;;;84.70;61.50;;;;;;;1.64;100.00;99283.44;109229;1254;66165;-71
2023/01/11 07:03:19;;;;;;;93.00;66.10;;;;;;;1.60;100.00;99289.48;109267;1254;60249;-72
2023/01/11 07:05:46;;;;;;;85.60;63.40;;;;;;;1.58;100.00;99288.52;109251;1254;64188;-72
2023/01/11 07:08:12;;;;;;;80.60;59.50;;;;;;;1.54;100.00;99284.73;109224;1254;58828;-72
2023/01/11 07:10:39;;;;;;;76.40;56.40;;;;;;;1.52;100.00;99281.30;109248;1254;58522;-72
2023/01/11 07:13:06;;;;;;;86.60;63.10;;;;;;;1.48;100.00;99283.48;109252;1254;66339;-72
2023/01/11 07:15:33;;;;;;;84.00;61.60;;;;;;;1.43;100.00;99283.63;108507;1254;1003036;-71
2023/01/11 07:18:00;;;;;;;90.10;64.80;;;;;;;1.39;100.00;99280.75;109236;1254;65220;-73
2023/01/11 07:20:27;;;;;;;96.40;65.20;;;;;;;1.36;100.00;99280.64;109232;1254;58286;-72
2023/01/11 07:22:58;;;;;;;79.60;57.90;;;;;;;1.37;100.00;99281.50;109223;1254;58300;-72
2023/01/11 07:25:26;;;;;;;94.10;65.70;;;;;;;1.37;100.00;99276.61;109221;1254;66208;-72
2023/01/11 07:27:57;;;;;;;83.80;60.90;;;;;;;1.38;100.00;99272.37;109235;1254;60336;-72
2023/01/11 07:30:24;;;;;;;82.30;59.60;;;;;;;1.39;100.00;99273.92;109221;1254;64093;-72
2023/01/11 07:32:51;;;;;;;86.70;58.40;;;;;;;1.40;100.00;99268.14;109232;1254;58230;-72
2023/01/11 07:35:18;;;;;;;73.00;54.90;;;;;;;1.37;100.00;99270.48;109246;1254;58104;-72
2023/01/11 07:37:44;;;;;;;76.10;55.50;;;;;;;1.32;100.00;99267.80;109230;1254;64847;-71
2023/01/11 07:40:12;;;;;;;131.30;63.10;;;;;;;1.34;100.00;99266.52;109262;1254;60155;-71
2023/01/11 07:45:24;;;;;;;187.90;64.40;;;;;;;1.49;100.00;99262.81;109193;1254;58230;-71
2023/01/11 07:47:51;;;;;;;236.80;68.00;;;;;;;1.57;100.00;99262.78;109229;1254;58459;-71
2023/01/11 07:50:17;;;;;;;331.40;74.40;;;;;;;1.62;100.00;99255.29;109247;1254;66060;-71
2023/01/11 07:52:48;;;;;;;305.20;74.90;;;;;;;1.68;100.00;99258.29;109029;1254;61352;-72
2023/01/11 07:55:15;;;;;;;356.60;71.70;;;;;;;1.78;100.00;99254.86;109234;1254;63875;-72
2023/01/11 07:57:42;;;;;;;306.20;66.90;;;;;;;1.89;100.00;99256.33;109245;1254;58246;-73
2023/01/11 08:00:09;;;;;;;394.00;65.70;;;;;;;2.00;100.00;99249.00;109227;1254;58136;-72
2023/01/11 08:02:36;;;;;;;235.20;61.50;;;;;;;2.10;100.00;99243.99;109270;1254;65455;-72
2023/01/11 08:05:03;;;;;;;285.00;59.70;;;;;;;2.19;100.00;99242.51;109219;1254;60043;-73
2023/01/11 08:07:30;;;;;;;247.30;57.80;;;;;;;2.26;100.00;99246.52;108987;1254;64030;-72
2023/01/11 08:09:56;;;;;;;271.60;56.80;;;;;;;2.34;100.00;99245.92;109246;1254;58231;-72
2023/01/11 08:15:12;;;;;;;233.30;54.60;;;;;;;2.52;100.00;99250.48;109247;1254;65168;-73
2023/01/11 08:17:39;;;;;;;235.60;52.30;;;;;;;2.60;100.00;99251.27;109235;1254;60172;-72
2023/01/11 08:20:06;;;;;;;207.70;49.30;;;;;;;2.68;100.00;99251.75;109018;1254;65443;-73
2023/01/11 08:22:33;;;;;;;204.90;51.50;;;;;;;2.73;100.00;99251.58;109225;1254;58639;-72
2023/01/11 08:24:59;;;;;;;186.90;50.30;;;;;;;2.77;100.00;99247.09;109217;1254;58142;-82
2023/01/11 08:27:26;;;;;;;184.60;51.30;;;;;;;2.76;100.00;99249.92;108838;1254;153105;-77
2023/01/11 08:29:53;;;;;;;170.30;48.90;;;;;;;2.78;100.00;99249.16;109261;1254;60686;-83
2023/01/11 08:32:19;;;;;;;131.40;47.30;;;;;;;2.84;100.00;99241.42;109212;1254;63768;-78
2023/01/11 08:34:46;;;;;;;157.40;53.30;;;;;;;2.90;100.00;99239.29;108990;1254;58371;-78
2023/01/11 08:37:13;;;;;;;148.80;50.70;;;;;;;2.96;100.00;99237.52;109192;1254;58247;-78
2023/01/11 08:39:40;;;;;;;118.90;51.60;;;;;;;3.02;100.00;99235.75;109203;1254;64835;-78
2023/01/11 08:42:06;;;;;;;150.00;51.00;;;;;;;3.06;100.00;99236.83;109195;1254;60733;-77
2023/01/11 08:44:33;;;;;;;122.80;50.70;;;;;;;3.07;100.00;99233.83;109249;1254;65305;-79
2023/01/11 08:47:00;;;;;;;140.70;52.40;;;;;;;3.08;100.00;99233.63;109223;1254;58601;-76
2023/01/11 08:49:29;;;;;;;172.40;63.70;;;;;;;3.12;100.00;99236.67;109271;1254;58333;-74
2023/01/11 08:51:55;;;;;;;145.50;56.40;;;;;;;3.16;100.00;99236.53;109228;1254;66124;-75
2023/01/11 08:54:23;;;;;;;161.10;57.60;;;;;;;3.20;100.00;99235.89;109165;1255;59863;-75
2023/01/11 08:56:50;;;;;;;133.60;55.50;;;;;;;3.21;100.00;99233.57;109124;1254;65134;-74
2023/01/11 08:59:18;;;;;;;140.80;59.70;;;;;;;3.20;100.00;99231.47;109191;1254;58497;-75
2023/01/11 09:01:45;;;;;;;163.60;59.70;;;;;;;3.21;100.00;99229.69;109248;1254;58179;-75
2023/01/11 09:04:12;;;;;;;127.50;52.90;;;;;;;3.22;100.00;99227.38;109234;1254;65016;-74
2023/01/11 09:06:39;;;;;;;136.60;48.70;;;;;;;3.19;100.00;99229.22;109220;1254;60702;-75
2023/01/11 09:09:05;;;;;;;165.30;50.80;;;;;;;3.13;100.00;99229.80;108824;1254;62481;-75
2023/01/11 09:14:17;;;;;;;196.40;54.20;;;;;;;3.19;100.00;99229.77;109224;1254;58409;-74
2023/01/11 09:16:44;;;;;;;211.50;66.10;;;;;;;3.25;100.00;99228.66;109233;1254;66280;-74
2023/01/11 09:19:10;;;;;;;182.80;52.70;;;;;;;3.37;100.00;99225.83;109275;1254;61920;-75
2023/01/11 09:21:37;;;;;;;193.10;60.10;;;;;;;3.45;100.00;99222.91;109254;1254;62615;-74
2023/01/11 09:24:04;;;;;;;186.60;60.00;;;;;;;3.54;100.00;99223.48;109235;1254;58947;-75
2023/01/11 09:26:30;;;;;;;145.80;60.20;;;;;;;3.63;100.00;99220.36;109252;1254;58168;-74
2023/01/11 09:28:57;;;;;;;234.50;55.70;;;;;;;3.78;100.00;99217.04;109293;1254;66094;-75
2023/01/11 09:31:24;;;;;;;153.30;57.50;;;;;;;3.89;100.00;99216.27;108952;1254;60729;-74
2023/01/11 09:33:51;;;;;;;115.40;54.70;;;;;;;3.97;100.00;99212.98;109244;1254;63726;-75
2023/01/11 09:36:20;;;;;;;147.10;51.80;;;;;;;4.09;100.00;99210.96;109231;1254;58213;-74
2023/01/11 09:38:49;;;;;;;109.90;49.70;;;;;;;4.22;100.00;99212.23;109265;1255;58241;-74
2023/01/11 09:41:27;;;;;;;112.40;51.20;;;;;;;4.33;100.00;99212.89;109286;1254;67421;-74
2023/01/11 09:44:09;;;;;;;91.10;48.90;;;;;;;4.44;100.00;99213.88;109231;1255;60769;-74
2023/01/11 09:46:41;;;;;;;75.90;46.60;;;;;;;4.51;100.00;99211.83;109234;1254;65142;-75
2023/01/11 09:49:19;;;;;;;76.20;45.30;;;;;;;4.57;100.00;99214.92;108994;1254;58311;-75
2023/01/11 09:51:46;;;;;;;82.40;46.60;;;;;;;4.67;100.00;99214.05;109255;1254;58289;-75
2023/01/11 09:54:21;;;;;;;65.20;45.50;;;;;;;4.76;100.00;99210.85;109242;1254;65794;-75
2023/01/11 09:56:56;;;;;;;82.40;44.20;;;;;;;4.85;100.00;99210.14;109268;1254;68401;-75
2023/01/11 09:59:47;;;;;;;73.50;45.60;;;;;;;4.91;100.00;99206.21;109259;1254;62716;-75
2023/01/11 10:02:29;;;;;;;72.90;45.20;;;;;;;4.96;100.00;99198.60;108953;1254;58277;-75
2023/01/11 10:05:40;;;;;;;65.50;44.50;;;;;;;4.98;100.00;99191.85;109237;1254;58107;-75
2023/01/11 10:08:13;;;;;;;107.30;68.70;;;;;;;5.02;100.00;99194.33;109273;1254;65956;-74
2023/01/11 10:10:53;;;;;;;88.00;50.10;;;;;;;5.14;100.00;99195.05;109251;1255;59764;-75
2023/01/11 10:13:44;;;;;;;64.70;44.00;;;;;;;5.23;100.00;99192.04;109231;1254;64138;-75
2023/01/11 10:16:28;;;;;;;66.00;43.40;;;;;;;5.23;100.00;99186.02;109239;1254;58209;-75
2023/01/11 10:19:08;;;;;;;87.40;46.60;;;;;;;5.21;100.00;99178.75;109240;1254;58214;-75
2023/01/11 10:21:44;;;;;;;59.50;41.50;;;;;;;5.16;100.00;99178.80;109253;1254;65033;-76
2023/01/11 10:24:22;;;;;;;59.40;41.40;;;;;;;5.13;100.00;99173.08;109259;1254;58435;-75
2023/01/11 10:26:51;;;;;;;65.80;44.30;;;;;;;5.19;100.00;99167.55;109143;1254;63263;-75
2023/01/11 10:33:05;;;;;;;59.20;42.80;;;;;;;5.22;100.00;99164.08;109005;1254;58280;-75
2023/01/11 10:38:39;;;;;;;60.00;41.50;;;;;;;5.07;100.00;99161.70;109286;1254;60750;-76
2023/01/11 10:41:20;;;;;;;54.80;38.70;;;;;;;5.01;100.00;99167.95;109100;1254;64989;-75
2023/01/11 10:44:02;;;;;;;54.00;39.40;;;;;;;4.93;100.00;99163.17;109247;1254;58262;-74
2023/01/11 10:46:30;;;;;;;62.30;42.40;;;;;;;4.95;100.00;99159.04;109235;1254;58422;-75
2023/01/11 10:49:09;;;;;;;55.90;41.00;;;;;;;5.00;100.00;99157.42;109257;1254;66471;-74
2023/01/11 10:51:42;;;;;;;60.00;42.70;;;;;;;5.09;100.00;99152.98;109275;1254;61144;-75
2023/01/11 10:54:16;;;;;;;65.40;44.10;;;;;;;5.20;100.00;99146.58;109278;1254;64196;-75
2023/01/11 10:57:14;;;;;;;64.80;44.50;;;;;;;5.31;100.00;99148.75;109228;1254;58166;-75
2023/01/11 11:00:11;;;;;;;61.50;44.50;;;;;;;5.34;100.00;99147.55;109239;1254;58234;-75
2023/01/11 11:03:05;;;;;;;59.70;42.50;;;;;;;5.37;100.00;99143.35;109297;1254;66485;-76
2023/01/11 11:06:13;;;;;;;59.70;43.40;;;;;;;5.47;100.00;99136.05;109261;1254;60933;-76
2023/01/11 11:08:52;;;;;;;54.10;39.90;;;;;;;5.69;100.00;99134.19;108797;1260;62895;-75
2023/01/11 11:11:37;;;;;;;50.40;39.00;;;;;;;5.90;100.00;99131.65;108794;1260;58552;-76
2023/01/11 11:14:22;;;;;;;54.80;41.60;;;;;;;6.00;100.00;99126.83;108802;1260;58959;-76
2023/01/11 11:17:33;;;;;;;54.90;40.40;;;;;;;5.99;100.00;99129.00;108803;1260;64982;-75
2023/01/11 11:20:12;;;;;;;58.10;41.90;;;;;;;5.90;100.00;99123.03;108393;1267;58709;-76
2023/01/11 11:22:38;;;;;;;54.10;40.30;;;;;;;5.90;100.00;99117.73;108404;1267;64678;-75
2023/01/11 11:25:18;;;;;;;58.70;42.40;;;;;;;5.87;100.00;99116.63;108382;1267;58312;-75
2023/01/11 11:27:51;;;;;;;56.60;41.60;;;;;;;5.87;100.00;99109.95;108421;1267;58433;-75
2023/01/11 11:30:31;;;;;;;58.00;43.70;;;;;;;5.89;100.00;99106.84;108383;1267;65298;-75
2023/01/11 11:33:00;;;;;;;;;;;;;;;5.86;100.00;99102.55;108385;1267;59529;-76
2023/01/11 11:35:35;;;;;;;58.30;42.00;;;;;;;5.79;100.00;99104.99;108409;1267;65100;-75
2023/01/11 11:38:01;;;;;;;54.60;38.90;;;;;;;5.76;100.00;99105.52;108383;1267;58248;-75
2023/01/11 11:40:36;;;;;;;51.70;38.30;;;;;;;5.75;100.00;99107.30;108287;1267;58321;-75
2023/01/11 11:43:21;;;;;;;49.60;37.70;;;;;;;5.79;100.00;99105.38;108401;1267;65342;-75
2023/01/11 11:45:58;;;;;;;51.50;41.80;;;;;;;5.77;100.00;99099.81;108652;1262;60966;-76
2023/01/11 11:48:27;;;;;;;57.80;44.30;;;;;;;5.78;100.00;99100.08;108736;1261;64330;-75
2023/01/11 11:50:58;;;;;;;57.50;41.50;;;;;;;5.82;100.00;99100.27;108639;1263;58613;-75
2023/01/11 11:53:36;;;;;;;;;;;;;;;5.88;100.00;99097.17;108743;1262;58383;-75
2023/01/11 11:56:24;;;;;;;54.50;38.70;;;;;;;5.93;100.00;99091.13;108806;1262;65265;-75